Time;durP1;ratioP1;P1;durP2;ratioP2;P2;SDS_P1;SDS_P2;PMS_P1;PMS_P2;Temp;Humidity;BMP_temperature;BMP_pressure;BME280_temperature;BME280_humidity;BME280_pressure;Samples;Min_cycle;Max_cycle;Signal;HPM_P1;HPM_P2
2024/04/20 00:02:54;;;;;;;3.05;1.42;;;;;;;7.82;73.79;99484.56;5009052;28;20022;-96
2024/04/20 00:09:03;;;;;;;3.90;1.45;;;;;;;7.83;73.88;99481.00;4979459;29;20001;-96
2024/04/20 00:15:21;;;;;;;3.63;1.50;;;;;;;7.84;74.00;99502.84;4980275;29;20012;-96
2024/04/20 00:26:33;;;;;;;3.88;1.40;;;;;;;7.85;72.22;99513.22;4979930;29;20008;-96
2024/04/20 00:32:52;;;;;;;4.75;1.65;;;;;;;7.91;73.80;99512.06;4978290;29;20115;-96
2024/04/20 00:39:12;;;;;;;5.03;1.20;;;;;;;7.89;73.06;99527.88;4978078;29;20012;-96
2024/04/20 00:49:39;;;;;;;3.00;1.52;;;;;;;7.86;71.41;99541.13;5006305;28;20011;-96
2024/04/20 00:59:59;;;;;;;3.20;1.05;;;;;;;7.89;73.55;99556.69;5043465;28;20015;-96
2024/04/20 01:11:07;;;;;;;3.67;1.13;;;;;;;7.80;71.87;99563.25;4951063;29;20054;-96
2024/04/20 01:37:13;;;;;;;2.65;2.00;;;;;;;7.41;70.98;99590.41;4893336;29;20006;-96
2024/04/20 01:48:53;;;;;;;5.18;1.73;;;;;;;7.26;71.39;99605.06;4892236;29;20015;-96
2024/04/20 02:04:46;;;;;;;4.53;1.42;;;;;;;7.08;71.68;99617.22;4835369;29;20008;-96
2024/04/20 02:15:50;;;;;;;5.30;2.15;;;;;;;6.95;73.84;99620.38;5042223;23;20054;-86
2024/04/20 02:18:17;;;;;;;5.47;1.65;;;;;;;6.90;73.64;99625.81;5077982;28;20091;-88
2024/04/20 02:20:44;;;;;;;5.43;2.35;;;;;;;6.89;73.53;99624.09;5079157;28;20010;-88
2024/04/20 02:23:12;;;;;;;3.95;1.90;;;;;;;6.85;73.99;99627.78;5078275;28;20025;-88
2024/04/20 02:25:38;;;;;;;6.88;2.58;;;;;;;6.86;74.03;99634.72;5077700;28;20467;-86
2024/04/20 02:28:05;;;;;;;5.57;1.55;;;;;;;6.85;73.82;99637.41;5078083;28;20014;-88
2024/04/20 02:30:32;;;;;;;4.18;1.58;;;;;;;6.84;74.03;99639.16;5079211;28;20356;-88
2024/04/20 02:32:59;;;;;;;5.10;1.55;;;;;;;6.85;73.91;99645.25;5079473;28;20022;-89
2024/04/20 02:35:26;;;;;;;8.63;2.17;;;;;;;6.84;74.26;99640.94;5079388;28;20353;-88
2024/04/20 02:37:52;;;;;;;6.03;1.60;;;;;;;6.83;73.74;99647.06;5078134;28;20022;-86
2024/04/20 02:40:19;;;;;;;2.38;1.58;;;;;;;6.83;73.99;99649.69;5078192;28;20007;-88
2024/04/20 02:42:46;;;;;;;4.55;1.95;;;;;;;6.81;74.01;99647.16;5078927;28;20023;-88
2024/04/20 02:45:17;;;;;;;5.78;1.80;;;;;;;6.81;74.11;99647.16;5079189;28;20006;-88
2024/04/20 02:47:44;;;;;;;5.93;1.85;;;;;;;6.80;74.04;99642.81;5081912;28;20002;-87
2024/04/20 02:50:11;;;;;;;5.40;2.40;;;;;;;6.79;73.88;99654.22;5081097;28;20010;-88
2024/04/20 02:52:38;;;;;;;7.47;1.83;;;;;;;6.78;74.11;99655.13;5083065;28;20006;-88
2024/04/20 02:55:04;;;;;;;5.82;1.92;;;;;;;6.76;74.01;99656.94;5082400;28;20090;-88
2024/04/20 02:57:31;;;;;;;6.65;2.13;;;;;;;6.76;74.14;99662.19;5082375;28;20018;-87
2024/04/20 02:59:58;;;;;;;9.25;1.98;;;;;;;6.74;74.28;99654.44;5080113;28;20011;-85
2024/04/20 03:02:25;;;;;;;4.70;1.70;;;;;;;6.75;74.33;99665.72;5079927;28;20025;-87
2024/04/20 03:04:51;;;;;;;7.30;2.15;;;;;;;6.75;74.00;99663.09;5080535;28;20020;-87
2024/04/20 03:07:18;;;;;;;5.93;1.90;;;;;;;6.75;74.29;99663.09;5082148;28;20006;-88
2024/04/20 03:09:45;;;;;;;7.80;2.28;;;;;;;6.74;74.56;99674.50;5079952;28;20014;-87
2024/04/20 03:12:14;;;;;;;10.45;1.95;;;;;;;6.74;74.43;99675.34;5080099;28;20347;-88
2024/04/20 03:14:40;;;;;;;5.80;1.85;;;;;;;6.73;74.14;99670.19;5080056;28;20038;-87
2024/04/20 03:17:07;;;;;;;7.72;2.08;;;;;;;6.73;74.16;99672.78;5080073;28;20083;-88
2024/04/20 03:19:34;;;;;;;3.28;1.90;;;;;;;6.72;74.32;99684.16;5079729;28;20406;-87
2024/04/20 03:22:00;;;;;;;6.80;1.70;;;;;;;6.72;74.29;99689.38;5081522;28;20002;-87
2024/04/20 03:24:27;;;;;;;5.47;2.35;;;;;;;6.71;73.80;99690.31;5080088;28;20064;-88
2024/04/20 03:26:54;;;;;;;5.68;1.70;;;;;;;6.69;74.15;99690.38;5079925;28;20087;-87
2024/04/20 03:29:24;;;;;;;6.97;2.53;;;;;;;6.67;73.83;99693.97;5080079;28;20010;-87
2024/04/20 03:31:51;;;;;;;4.18;1.95;;;;;;;6.65;73.54;99683.56;5079541;28;20010;-88
2024/04/20 03:34:18;;;;;;;7.10;2.30;;;;;;;6.62;73.49;99697.63;5079933;28;20039;-88
2024/04/20 03:36:44;;;;;;;7.20;2.22;;;;;;;6.60;73.84;99696.84;5054061;28;20029;-87
2024/04/20 03:39:12;;;;;;;3.67;1.80;;;;;;;6.58;73.06;99705.69;5079555;28;20042;-87
2024/04/20 03:41:39;;;;;;;7.68;2.03;;;;;;;6.54;73.49;99714.56;5080902;28;20034;-87
2024/04/20 03:44:06;;;;;;;6.78;2.15;;;;;;;6.51;73.41;99716.38;5081277;27;20343;-87
2024/04/20 03:46:32;;;;;;;3.70;1.70;;;;;;;6.49;73.93;99719.97;5079666;28;20010;-87
2024/04/20 03:48:59;;;;;;;4.45;1.92;;;;;;;6.46;73.70;99725.31;5079999;28;20471;-87
2024/04/20 03:51:27;;;;;;;4.10;1.60;;;;;;;6.44;74.08;99727.16;5079748;28;20025;-87
2024/04/20 03:53:53;;;;;;;5.82;2.22;;;;;;;6.42;75.07;99727.22;5079728;28;20470;-87
2024/04/20 03:56:20;;;;;;;6.13;1.90;;;;;;;6.43;75.30;99734.13;5079427;28;20021;-87
2024/04/20 03:58:49;;;;;;;10.18;2.28;;;;;;;6.44;75.51;99733.25;5079490;28;20301;-87
2024/04/20 04:01:15;;;;;;;4.45;2.53;;;;;;;6.48;76.28;99740.06;5079135;28;20014;-87
2024/04/20 04:03:42;;;;;;;6.30;2.70;;;;;;;6.51;76.43;99736.47;5105504;28;20011;-87
2024/04/20 04:06:09;;;;;;;4.20;2.10;;;;;;;6.57;76.76;99748.41;5079723;28;20013;-87
2024/04/20 04:08:36;;;;;;;5.03;2.30;;;;;;;6.61;76.58;99744.75;5081384;28;20336;-87
2024/04/20 04:11:03;;;;;;;8.88;2.42;;;;;;;6.66;76.76;99748.06;5079515;28;20006;-87
2024/04/20 04:13:30;;;;;;;8.65;2.50;;;;;;;6.71;76.74;99753.94;5080918;28;20046;-87
2024/04/20 04:15:56;;;;;;;8.38;1.90;;;;;;;6.76;76.66;99753.75;5081329;28;20002;-88
2024/04/20 04:18:24;;;;;;;6.85;2.30;;;;;;;6.81;76.46;99764.91;5079175;28;20472;-87
2024/04/20 04:20:51;;;;;;;5.20;2.47;;;;;;;6.86;76.96;99762.06;5080907;28;20014;-87
2024/04/20 04:23:18;;;;;;;6.45;2.40;;;;;;;6.91;76.77;99767.97;5079148;28;20358;-88
2024/04/20 04:25:44;;;;;;;5.25;2.30;;;;;;;6.94;76.36;99767.84;5079138;28;20021;-87
2024/04/20 04:28:11;;;;;;;7.88;2.65;;;;;;;6.99;76.35;99771.09;5079203;28;20028;-87
2024/04/20 04:30:38;;;;;;;11.38;2.28;;;;;;;7.03;76.44;99764.84;5080540;28;20087;-87
2024/04/20 04:33:04;;;;;;;4.28;2.30;;;;;;;7.07;76.49;99777.81;5079215;28;20343;-87
2024/04/20 04:35:31;;;;;;;4.78;2.08;;;;;;;7.12;76.45;99778.44;5078987;28;20025;-87
2024/04/20 04:37:58;;;;;;;12.00;2.33;;;;;;;7.16;76.50;99774.78;5078898;28;20458;-87
2024/04/20 04:40:24;;;;;;;7.00;2.40;;;;;;;7.20;76.37;99781.59;5078988;28;20473;-87
2024/04/20 04:42:52;;;;;;;4.53;1.98;;;;;;;7.23;76.28;99783.22;5078649;28;20014;-87
2024/04/20 04:45:20;;;;;;;5.28;1.90;;;;;;;7.24;76.41;99775.31;5080333;28;20022;-87
2024/04/20 04:47:47;;;;;;;4.45;1.95;;;;;;;7.29;76.49;99780.38;5078794;28;20022;-87
2024/04/20 04:50:14;;;;;;;4.35;2.05;;;;;;;7.32;76.37;99782.00;5078370;28;20021;-87
2024/04/20 04:52:41;;;;;;;8.38;1.85;;;;;;;7.35;76.72;99776.59;5078391;28;20079;-87
2024/04/20 04:55:08;;;;;;;6.30;2.60;;;;;;;7.38;76.29;99786.97;5080996;28;20550;-87
2024/04/20 04:57:34;;;;;;;4.72;2.10;;;;;;;7.39;75.98;99789.50;5078523;28;20403;-87
2024/04/20 05:00:01;;;;;;;3.53;1.98;;;;;;;7.43;76.37;99800.69;5078633;28;20042;-88
2024/04/20 05:02:28;;;;;;;12.30;2.08;;;;;;;7.46;76.08;99804.94;5078485;28;20015;-87
2024/04/20 05:04:55;;;;;;;5.55;1.75;;;;;;;7.48;76.38;99803.13;5078457;28;20014;-88
2024/04/20 05:07:21;;;;;;;5.80;2.17;;;;;;;7.51;76.39;99818.72;5079757;28;20014;-88
2024/04/20 05:09:48;;;;;;;4.13;2.00;;;;;;;7.52;75.92;99810.78;5078154;28;20493;-87
2024/04/20 05:12:15;;;;;;;4.40;1.70;;;;;;;7.56;76.29;99821.97;5078093;28;20351;-87
2024/04/20 05:14:42;;;;;;;3.97;1.80;;;;;;;7.58;76.14;99825.38;5080333;28;20021;-88
2024/04/20 05:17:08;;;;;;;8.23;2.22;;;;;;;7.61;76.50;99827.00;5080381;28;20015;-88
2024/04/20 05:19:35;;;;;;;5.75;1.90;;;;;;;7.65;76.77;99833.81;5078126;28;20042;-87
2024/04/20 05:24:38;;;;;;;7.05;2.22;;;;;;;7.73;76.38;99838.75;5046877;28;20331;-85
2024/04/20 05:27:04;;;;;;;4.82;2.00;;;;;;;7.76;76.49;99828.09;5072841;28;20027;-86
2024/04/20 05:29:31;;;;;;;9.38;2.35;;;;;;;7.78;76.33;99837.59;5048663;28;20019;-86
2024/04/20 05:31:58;;;;;;;4.07;2.15;;;;;;;7.82;76.17;99840.94;5047054;28;20066;-85
2024/04/20 05:34:25;;;;;;;6.78;2.50;;;;;;;7.84;76.40;99835.66;5047829;28;20440;-85
2024/04/20 05:36:51;;;;;;;3.63;1.90;;;;;;;7.86;76.25;99845.16;5048801;28;20459;-86
2024/04/20 05:39:18;;;;;;;4.35;1.80;;;;;;;7.88;76.51;99848.53;5047188;28;20012;-85
2024/04/20 05:41:45;;;;;;;5.13;1.95;;;;;;;7.91;76.25;99852.78;5048696;28;20022;-85
2024/04/20 05:44:12;;;;;;;3.35;1.92;;;;;;;7.93;75.95;99857.03;5048172;28;20111;-85
2024/04/20 05:46:38;;;;;;;3.90;1.92;;;;;;;7.95;76.34;99860.47;5049747;28;20011;-85
2024/04/20 05:49:05;;;;;;;7.63;1.77;;;;;;;7.99;76.34;99860.34;5048847;28;20094;-85
2024/04/20 05:51:32;;;;;;;4.70;1.73;;;;;;;8.02;76.38;99866.28;5046891;28;20011;-85
2024/04/20 05:53:58;;;;;;;4.43;2.50;;;;;;;8.05;76.34;99879.25;5048630;28;20012;-85
2024/04/20 05:56:25;;;;;;;7.05;1.80;;;;;;;8.07;76.55;99877.41;5048633;28;20073;-85
2024/04/20 05:58:52;;;;;;;5.95;2.00;;;;;;;8.11;76.77;99882.50;5048586;28;20007;-85
2024/04/20 06:01:19;;;;;;;6.63;1.80;;;;;;;8.16;77.08;99888.41;5047010;28;20348;-85
2024/04/20 06:03:45;;;;;;;5.85;1.70;;;;;;;8.21;76.60;99892.53;5048519;28;20007;-85
2024/04/20 06:06:12;;;;;;;4.25;1.83;;;;;;;8.27;77.25;99890.53;5048703;28;20016;-85
2024/04/20 06:08:39;;;;;;;7.05;1.67;;;;;;;8.31;77.02;99890.34;5048579;28;20012;-85
2024/04/20 06:11:08;;;;;;;8.45;1.65;;;;;;;8.37;77.42;99896.22;5048557;28;20015;-85
2024/04/20 06:13:35;;;;;;;3.80;1.63;;;;;;;8.45;77.43;99896.72;5047014;28;20007;-85
2024/04/20 06:16:02;;;;;;;4.47;1.70;;;;;;;8.50;77.01;99907.00;5048365;28;20425;-85
2024/04/20 06:18:29;;;;;;;5.43;1.55;;;;;;;8.56;76.95;99906.75;5048256;28;20011;-85
2024/04/20 06:20:56;;;;;;;4.75;1.75;;;;;;;8.60;76.96;99903.91;5047803;28;20030;-85
2024/04/20 06:23:23;;;;;;;7.38;1.60;;;;;;;8.67;76.69;99908.88;5050756;28;20003;-85
2024/04/20 06:25:50;;;;;;;7.32;1.80;;;;;;;8.71;76.99;99921.78;5049406;28;20019;-86
2024/04/20 06:28:16;;;;;;;3.55;1.83;;;;;;;8.74;77.03;99915.53;5049605;28;20007;-85
2024/04/20 06:30:45;;;;;;;3.03;1.40;;;;;;;8.80;77.07;99923.13;5050504;28;20462;-85
2024/04/20 06:33:13;;;;;;;8.70;1.63;;;;;;;8.85;76.82;99922.91;5049401;28;20022;-85
2024/04/20 06:35:42;;;;;;;5.30;1.55;;;;;;;8.89;76.73;99921.81;5051177;28;20515;-85
2024/04/20 06:38:10;;;;;;;8.00;1.80;;;;;;;8.94;76.61;99929.50;5048885;28;20011;-85
2024/04/20 06:40:37;;;;;;;3.25;1.30;;;;;;;8.99;76.73;99930.13;5050599;28;20011;-85
2024/04/20 06:43:04;;;;;;;4.22;1.95;;;;;;;9.04;76.86;99929.91;5050862;28;20011;-85
2024/04/20 06:45:31;;;;;;;6.78;1.77;;;;;;;9.08;76.55;99936.72;5050591;28;20070;-85
2024/04/20 06:47:58;;;;;;;4.35;1.75;;;;;;;9.12;76.57;99938.25;5050882;28;20087;-86
2024/04/20 06:50:25;;;;;;;5.75;2.03;;;;;;;9.18;76.60;99947.63;5050680;28;20025;-85
2024/04/20 06:52:51;;;;;;;3.88;1.70;;;;;;;9.22;76.64;99952.66;5048560;28;20008;-85
2024/04/20 06:55:18;;;;;;;6.85;1.75;;;;;;;9.29;76.72;99954.97;5049118;28;20011;-85
2024/04/20 06:57:45;;;;;;;3.67;1.55;;;;;;;9.34;76.70;99958.22;5048997;28;20018;-86
2024/04/20 07:00:12;;;;;;;6.00;1.55;;;;;;;9.37;76.59;99960.72;5050395;28;20388;-86
2024/04/20 07:02:39;;;;;;;4.75;1.63;;;;;;;9.44;76.76;99961.25;5051745;28;20011;-85
2024/04/20 07:05:06;;;;;;;7.13;1.77;;;;;;;9.50;76.97;99967.06;5051990;28;20011;-85
2024/04/20 07:07:34;;;;;;;3.65;1.52;;;;;;;9.56;76.36;99968.53;5052113;28;20003;-85
2024/04/20 07:10:01;;;;;;;4.93;1.60;;;;;;;9.62;76.67;99970.88;5050615;28;20047;-85
2024/04/20 07:12:28;;;;;;;3.67;1.80;;;;;;;9.68;76.64;99968.88;5051757;28;20030;-85
2024/04/20 07:14:55;;;;;;;7.47;1.38;;;;;;;9.74;76.53;99971.19;5051767;28;20019;-85
2024/04/20 07:17:22;;;;;;;3.20;1.55;;;;;;;9.80;76.25;99985.81;5051797;28;20023;-85
2024/04/20 07:19:49;;;;;;;5.80;1.33;;;;;;;9.85;76.23;99976.75;5051678;28;20016;-85
2024/04/20 07:22:15;;;;;;;6.28;1.80;;;;;;;9.91;76.66;99989.59;5051700;28;20003;-85
2024/04/20 07:24:42;;;;;;;4.35;1.40;;;;;;;9.99;76.45;99991.00;5050375;28;20012;-85
2024/04/20 07:27:09;;;;;;;4.30;1.40;;;;;;;10.04;76.61;99995.09;5052000;28;20019;-85
2024/04/20 07:29:36;;;;;;;4.97;1.38;;;;;;;10.11;76.11;99993.00;5051835;28;20011;-85
2024/04/20 07:32:03;;;;;;;6.82;1.90;;;;;;;10.19;76.50;99997.84;5051025;28;20007;-85
2024/04/20 07:34:30;;;;;;;5.97;1.60;;;;;;;10.24;75.82;99993.19;5052009;28;20341;-86
2024/04/20 07:36:57;;;;;;;5.05;1.35;;;;;;;10.28;75.39;100007.91;5051797;28;20019;-85
2024/04/20 07:39:24;;;;;;;3.63;1.80;;;;;;;10.34;75.58;100003.25;5050211;28;20023;-85
2024/04/20 07:41:52;;;;;;;5.82;1.65;;;;;;;10.38;75.91;100008.28;5051656;28;20011;-85
2024/04/20 07:44:19;;;;;;;4.93;1.40;;;;;;;10.45;76.06;100016.72;5050093;28;20011;-85
2024/04/20 07:46:59;;;;;;;4.40;1.70;;;;;;;10.49;73.13;100013.00;5049723;28;20088;-85
2024/04/20 07:49:35;;;;;;;4.40;1.05;;;;;;;10.62;76.24;100012.38;5050125;28;20015;-86
2024/04/20 07:52:03;;;;;;;3.83;1.40;;;;;;;10.69;75.83;100017.22;5049576;28;20026;-85
2024/04/20 07:54:30;;;;;;;3.90;1.55;;;;;;;10.76;76.04;100017.72;5053166;28;20011;-85
2024/04/20 07:56:56;;;;;;;5.20;1.33;;;;;;;10.86;76.47;100022.50;5055497;28;20011;-86
2024/04/20 07:59:23;;;;;;;3.72;1.35;;;;;;;10.94;76.27;100030.84;5053215;28;20419;-86
2024/04/20 08:01:51;;;;;;;4.85;1.33;;;;;;;11.03;75.99;100025.06;5047601;28;20406;-86
2024/04/20 08:04:18;;;;;;;5.07;1.45;;;;;;;11.14;75.86;100028.91;5023995;28;20796;-85
2024/04/20 08:06:45;;;;;;;4.03;1.48;;;;;;;11.24;75.93;100030.09;5051315;28;20011;-85
2024/04/20 08:09:12;;;;;;;3.53;1.38;;;;;;;11.33;75.91;100029.56;5051199;28;20030;-85
2024/04/20 08:11:41;;;;;;;5.80;1.42;;;;;;;11.43;75.26;100032.56;5074608;28;20014;-85
2024/04/20 08:14:08;;;;;;;4.07;1.38;;;;;;;11.51;75.22;100042.66;5051128;28;20473;-85
2024/04/20 08:16:35;;;;;;;4.22;1.58;;;;;;;11.57;74.73;100044.97;5049600;28;20092;-86
2024/04/20 08:19:03;;;;;;;4.63;2.00;;;;;;;11.64;74.07;100036.69;5075331;28;20019;-85
2024/04/20 08:21:30;;;;;;;3.10;1.63;;;;;;;11.68;74.03;100036.44;5075241;28;20758;-85
2024/04/20 08:23:57;;;;;;;1.33;1.23;;;;;;;11.72;73.58;100039.75;5075288;28;20424;-85
2024/04/20 08:26:25;;;;;;;4.43;1.27;;;;;;;11.76;73.49;100046.53;5049781;28;20007;-85
2024/04/20 08:28:52;;;;;;;2.90;1.60;;;;;;;11.81;73.18;100051.56;5049375;28;20003;-85
2024/04/20 08:31:19;;;;;;;6.95;2.00;;;;;;;11.83;72.78;100045.25;5050489;28;20015;-86
2024/04/20 08:33:46;;;;;;;4.65;1.90;;;;;;;11.84;72.48;100051.38;5049639;28;20003;-85
2024/04/20 08:36:13;;;;;;;5.88;2.58;;;;;;;11.84;72.96;100057.50;5049690;28;20339;-86
2024/04/20 08:38:40;;;;;;;13.25;2.70;;;;;;;11.90;73.51;100063.34;5049280;28;20144;-85
2024/04/20 08:41:12;;;;;;;3.65;2.40;;;;;;;11.93;71.24;100065.84;5050439;28;20007;-86
2024/04/20 08:43:42;;;;;;;7.93;2.50;;;;;;;12.00;71.30;100067.16;5049538;28;20004;-86
2024/04/20 08:46:14;;;;;;;4.63;2.30;;;;;;;12.07;71.69;100072.97;5050864;28;20010;-85
2024/04/20 08:48:49;;;;;;;5.95;2.60;;;;;;;12.15;71.56;100075.16;5074779;28;20026;-85
2024/04/20 08:51:20;;;;;;;3.58;2.55;;;;;;;12.26;73.51;100070.09;5050296;28;20030;-87
2024/04/20 08:53:49;;;;;;;6.47;3.20;;;;;;;12.37;74.36;100064.16;5050544;28;20022;-86
2024/04/20 08:56:18;;;;;;;2.45;1.77;;;;;;;12.50;73.45;100077.50;5075071;28;20003;-87
2024/04/20 08:58:45;;;;;;;3.55;1.50;;;;;;;12.61;73.17;100074.22;5049026;28;20007;-86
2024/04/20 09:01:14;;;;;;;5.85;2.40;;;;;;;12.70;72.28;100084.22;5047709;28;20359;-86
2024/04/20 09:03:42;;;;;;;6.70;2.15;;;;;;;12.78;71.55;100083.75;5050013;28;20059;-86
2024/04/20 09:06:12;;;;;;;2.97;2.03;;;;;;;12.80;69.43;100079.22;5048284;28;20017;-87
2024/04/20 09:08:42;;;;;;;5.22;1.83;;;;;;;12.83;69.35;100094.91;5050371;28;20003;-87
2024/04/20 09:11:09;;;;;;;6.70;2.22;;;;;;;12.82;69.29;100087.06;5049722;28;20011;-87
2024/04/20 09:13:36;;;;;;;5.75;2.13;;;;;;;12.78;69.82;100083.75;5050479;28;20031;-86
2024/04/20 09:16:03;;;;;;;6.13;2.47;;;;;;;12.73;69.46;100094.59;5050571;28;20011;-87
2024/04/20 09:18:29;;;;;;;2.45;1.85;;;;;;;12.69;69.13;100102.78;5050454;28;20022;-87
2024/04/20 09:20:58;;;;;;;6.85;1.60;;;;;;;12.61;68.63;100106.75;5048036;28;20026;-87
2024/04/20 09:23:24;;;;;;;4.22;1.65;;;;;;;12.52;69.05;100107.28;5074309;28;20101;-86
2024/04/20 09:25:53;;;;;;;4.22;1.58;;;;;;;12.41;69.18;100102.66;5050269;28;20026;-87
2024/04/20 09:28:27;;;;;;;5.38;1.70;;;;;;;12.35;70.56;100110.94;5071811;28;20467;-87
2024/04/20 09:30:55;;;;;;;10.43;1.90;;;;;;;12.31;71.71;100107.63;5072213;28;20011;-86
2024/04/20 09:33:23;;;;;;;2.70;1.48;;;;;;;12.34;71.83;100112.72;5048210;28;20011;-87
2024/04/20 09:35:50;;;;;;;6.63;1.90;;;;;;;12.41;72.78;100113.22;5048093;28;20011;-87
2024/04/20 09:38:17;;;;;;;3.83;1.52;;;;;;;12.49;72.30;100107.50;5048187;28;20111;-87
2024/04/20 09:40:46;;;;;;;6.22;1.67;;;;;;;12.58;71.38;100106.94;5047494;28;20015;-87
2024/04/20 09:43:13;;;;;;;6.25;1.90;;;;;;;12.69;71.65;100118.63;5072844;28;20092;-87
2024/04/20 09:45:41;;;;;;;4.43;1.63;;;;;;;12.77;71.58;100116.38;5048210;28;20011;-87
2024/04/20 09:48:16;;;;;;;2.92;1.35;;;;;;;12.85;69.26;100113.28;5046776;28;20019;-87
2024/04/20 09:50:48;;;;;;;4.43;1.67;;;;;;;12.96;69.90;100112.63;5046389;28;20003;-87
2024/04/20 09:53:21;;;;;;;3.15;1.60;;;;;;;13.08;72.22;100113.69;5046771;28;20027;-87
2024/04/20 09:55:48;;;;;;;3.40;1.42;;;;;;;13.19;72.62;100105.06;5047776;28;20011;-87
2024/04/20 09:58:18;;;;;;;4.30;1.80;;;;;;;13.32;72.70;100106.00;5047653;28;20091;-87
2024/04/20 10:00:45;;;;;;;1.42;1.10;;;;;;;13.53;73.86;100108.28;5045639;28;20022;-87
2024/04/20 10:03:14;;;;;;;4.82;1.33;;;;;;;13.71;72.93;100113.31;5046244;28;20023;-87
2024/04/20 10:05:40;;;;;;;3.53;1.27;;;;;;;13.87;70.74;100103.41;5047797;28;20008;-87
2024/04/20 10:08:11;;;;;;;2.33;1.05;;;;;;;13.97;69.96;100108.97;5046465;28;20015;-87
2024/04/20 10:10:39;;;;;;;2.78;1.05;;;;;;;14.00;69.45;100105.25;5045677;28;20461;-87
2024/04/20 10:13:09;;;;;;;3.00;1.08;;;;;;;14.02;69.09;100108.69;5047562;28;20015;-87
2024/04/20 10:15:37;;;;;;;4.53;1.25;;;;;;;14.05;70.38;100101.38;5046200;28;20511;-87
2024/04/20 10:18:04;;;;;;;3.22;1.42;;;;;;;14.10;70.60;100098.44;5046107;28;20455;-87
2024/04/20 10:20:33;;;;;;;3.22;1.20;;;;;;;14.18;69.99;100109.34;5045658;28;20019;-87
2024/04/20 10:23:01;;;;;;;1.95;1.13;;;;;;;14.26;69.99;100102.69;5045994;28;20023;-87
2024/04/20 10:25:53;;;;;;;3.58;1.20;;;;;;;14.32;66.34;100107.59;5072384;28;20011;-86
2024/04/20 10:28:27;;;;;;;2.47;0.90;;;;;;;14.42;65.32;100108.66;5052103;28;20003;-87
2024/04/20 10:30:58;;;;;;;3.35;0.80;;;;;;;14.50;68.90;100107.28;5050089;28;20809;-87
2024/04/20 10:33:34;;;;;;;2.58;1.10;;;;;;;14.51;65.89;100108.97;5048735;28;20023;-86
2024/04/20 10:36:06;;;;;;;2.63;1.02;;;;;;;14.52;67.81;100103.56;5048911;28;20459;-87
2024/04/20 10:38:37;;;;;;;1.95;1.00;;;;;;;14.53;68.03;100104.41;5072392;28;20069;-86
2024/04/20 10:41:14;;;;;;;1.70;0.90;;;;;;;14.52;63.53;100110.66;5050551;28;20011;-85
2024/04/20 10:43:46;;;;;;;2.35;0.68;;;;;;;14.58;68.37;100102.31;5051172;28;20011;-86
2024/04/20 10:46:17;;;;;;;0.98;0.70;;;;;;;14.62;65.14;100114.41;5074450;28;20063;-86
2024/04/20 10:48:54;;;;;;;1.13;0.60;;;;;;;14.70;64.60;100111.22;5049263;28;20011;-87
2024/04/20 10:51:21;;;;;;;0.98;0.70;;;;;;;14.84;69.44;100102.34;5072754;28;20499;-86
2024/04/20 10:53:59;;;;;;;1.60;0.80;;;;;;;14.97;66.16;100102.34;5047232;28;20326;-86
2024/04/20 10:56:27;;;;;;;3.58;0.70;;;;;;;15.24;72.91;100096.88;5048116;28;20117;-85
2024/04/20 10:59:12;;;;;;;3.20;0.70;;;;;;;15.55;67.36;100109.72;5046978;28;20011;-86
2024/04/20 11:01:42;;;;;;;4.47;0.52;;;;;;;15.90;70.99;100097.50;5051482;28;20011;-86
2024/04/20 11:04:18;;;;;;;1.48;0.50;;;;;;;16.18;68.79;100102.59;5047427;28;20087;-87
2024/04/20 11:06:46;;;;;;;1.30;0.60;;;;;;;16.49;70.96;100103.75;5051158;28;20019;-86
2024/04/20 11:09:13;;;;;;;0.55;0.40;;;;;;;16.94;73.00;100102.13;5050400;28;20007;-86
2024/04/20 11:11:40;;;;;;;1.75;0.63;;;;;;;17.48;73.46;100099.69;5051775;28;20022;-86
2024/04/20 11:14:17;;;;;;;1.10;0.52;;;;;;;18.12;62.83;100088.38;5053932;28;20011;-86
2024/04/20 11:16:47;;;;;;;1.88;0.60;;;;;;;18.74;70.59;100083.16;5051692;28;20556;-86
2024/04/20 11:19:21;;;;;;;1.27;0.60;;;;;;;19.27;66.37;100091.94;5053573;28;20015;-89
2024/04/20 11:21:51;;;;;;;0.93;0.60;;;;;;;19.62;63.92;100089.78;5181262;22;20068;-86
2024/04/20 11:24:28;;;;;;;2.67;0.60;;;;;;;19.94;59.91;100086.00;5025764;28;20026;-89
2024/04/20 11:27:49;;;;;;;;;;;;;;;;;;;;;
2024/04/20 11:31:00;;;;;;;3.25;0.68;;;;;;;20.36;56.17;100089.34;5050817;28;20046;-88
2024/04/20 11:36:30;;;;;;;2.28;0.60;;;;;;;20.10;57.82;100077.44;5050899;28;20547;-87
2024/04/20 11:41:59;;;;;;;1.92;0.63;;;;;;;19.75;57.58;100081.50;5080675;28;20494;-87
2024/04/20 11:44:42;;;;;;;3.55;0.88;;;;;;;19.55;52.80;100088.66;5084018;28;20017;-86
2024/04/20 11:50:05;;;;;;;1.77;0.70;;;;;;;19.07;53.86;100105.25;5051575;28;20011;-88
2024/04/20 11:56:04;;;;;;;0.40;0.40;;;;;;;18.10;53.60;100118.66;5078441;28;20021;-87
2024/04/20 11:58:33;;;;;;;0.40;0.40;;;;;;;17.63;53.01;100129.53;5055525;28;20010;-89
2024/04/20 12:01:25;;;;;;;0.85;0.40;;;;;;;17.10;53.71;100135.50;5082922;28;20020;-88
2024/04/20 12:04:19;;;;;;;0.65;0.40;;;;;;;16.63;54.42;100147.06;5079404;28;20023;-87
2024/04/20 12:06:48;;;;;;;1.50;0.47;;;;;;;16.24;57.11;100148.13;5081054;28;20018;-87
2024/04/20 12:09:22;;;;;;;0.20;0.20;;;;;;;15.85;56.14;100150.09;5081443;28;20087;-87
2024/04/20 12:11:52;;;;;;;1.70;0.60;;;;;;;15.54;56.97;100154.94;5054995;28;20021;-87
2024/04/20 12:14:25;;;;;;;0.82;0.57;;;;;;;15.28;57.32;100165.63;5081763;28;20427;-86
2024/04/20 12:16:55;;;;;;;1.33;0.55;;;;;;;15.06;59.64;100159.19;5081705;28;20018;-86
2024/04/20 12:19:42;;;;;;;2.00;0.50;;;;;;;14.77;58.86;100154.91;5083576;28;20002;-86
2024/04/20 12:22:15;;;;;;;1.80;0.70;;;;;;;14.60;61.14;100150.72;5083266;28;20350;-86
2024/04/20 12:24:45;;;;;;;2.10;0.80;;;;;;;14.41;60.10;100162.56;5082454;28;20017;-87
2024/04/20 12:27:12;;;;;;;1.23;0.57;;;;;;;14.25;61.52;100161.88;5083246;28;20025;-86
2024/04/20 12:29:39;;;;;;;6.05;0.80;;;;;;;14.06;61.76;100171.88;5084098;28;20025;-87
2024/04/20 12:32:06;;;;;;;1.73;0.80;;;;;;;13.88;62.35;100170.44;5082414;28;20007;-85
2024/04/20 12:34:36;;;;;;;0.88;0.40;;;;;;;13.73;63.41;100151.97;5085512;28;20029;-87
2024/04/20 12:37:06;;;;;;;1.65;0.60;;;;;;;13.67;66.25;100147.03;5082609;28;20461;-86
2024/04/20 12:39:37;;;;;;;1.40;0.60;;;;;;;13.82;67.32;100142.56;5081969;28;20066;-87
2024/04/20 12:42:11;;;;;;;1.17;0.45;;;;;;;14.06;69.00;100139.28;5082404;28;20007;-86
2024/04/20 12:44:41;;;;;;;1.45;0.50;;;;;;;14.42;72.73;100132.47;5081803;28;20091;-87
2024/04/20 12:47:07;;;;;;;2.97;0.55;;;;;;;14.93;75.73;100135.31;5084881;28;20018;-87
2024/04/20 12:49:34;;;;;;;1.50;0.65;;;;;;;15.59;78.61;100137.75;5085324;28;20014;-87
2024/04/20 12:52:01;;;;;;;1.00;0.57;;;;;;;16.37;79.39;100129.44;5085397;28;20010;-87
2024/04/20 12:54:28;;;;;;;1.25;0.40;;;;;;;17.21;77.18;100135.53;5084852;28;20108;-87
2024/04/20 12:56:54;;;;;;;1.13;0.60;;;;;;;18.04;75.61;100129.78;5085908;28;20007;-87
2024/04/20 12:59:21;;;;;;;0.57;0.50;;;;;;;18.83;74.62;100142.84;5085579;28;20462;-87
2024/04/20 13:01:48;;;;;;;1.00;0.40;;;;;;;19.58;74.12;100129.25;5082035;28;20087;-87
2024/04/20 13:04:16;;;;;;;2.45;0.65;;;;;;;20.31;71.26;100132.59;5081233;28;20058;-87
2024/04/20 13:06:43;;;;;;;2.58;0.70;;;;;;;20.93;68.22;100137.53;5080592;28;20002;-87
2024/04/20 13:09:11;;;;;;;2.53;0.80;;;;;;;21.42;65.76;100124.94;5083388;28;20018;-87
2024/04/20 13:11:38;;;;;;;2.75;0.70;;;;;;;21.72;60.27;100123.78;5056068;28;20019;-87
2024/04/20 13:14:06;;;;;;;0.40;0.40;;;;;;;21.78;56.99;100121.47;5081967;28;20438;-86
2024/04/20 13:16:33;;;;;;;0.57;0.50;;;;;;;21.59;55.06;100125.97;5081789;28;20024;-87
2024/04/20 13:19:00;;;;;;;1.83;0.70;;;;;;;21.25;53.73;100116.72;5083842;28;20475;-87
2024/04/20 13:21:26;;;;;;;1.17;0.50;;;;;;;20.80;53.01;100121.78;5081575;28;20014;-87
2024/04/20 13:23:53;;;;;;;1.75;0.50;;;;;;;20.28;53.58;100123.03;5080951;28;20014;-86
2024/04/20 13:26:20;;;;;;;2.10;0.95;;;;;;;19.75;53.58;100126.91;5080570;28;20030;-87
2024/04/20 13:29:07;;;;;;;2.58;0.90;;;;;;;19.12;53.52;100145.69;5080401;28;20010;-86
2024/04/20 13:31:33;;;;;;;1.20;0.70;;;;;;;18.51;53.19;100173.94;5078969;28;20007;-87
2024/04/20 13:34:00;;;;;;;2.17;0.77;;;;;;;17.87;52.53;100178.28;5080606;28;20346;-87
2024/04/20 13:36:28;;;;;;;5.00;0.82;;;;;;;17.23;52.87;100177.97;5080103;28;20015;-87
2024/04/20 13:38:55;;;;;;;3.40;0.60;;;;;;;16.62;53.40;100182.53;5080645;28;20086;-88
2024/04/20 13:41:22;;;;;;;1.58;0.63;;;;;;;16.03;54.95;100171.81;5081109;28;20011;-86